createdAt,value
2022-07-29T00:02:37.821Z,102051.59
2022-07-29T00:08:42.963Z,102042.13
2022-07-29T00:14:46.666Z,102043.72
2022-07-29T00:20:52.198Z,102052.59
2022-07-29T00:26:57.181Z,102056.34
2022-07-29T00:33:00.799Z,102055.94
2022-07-29T00:39:05.098Z,102064.78
2022-07-29T00:45:11.006Z,102056.22
2022-07-29T00:51:15.217Z,102051.22
2022-07-29T00:57:18.931Z,102044.88
2022-07-29T01:03:24.136Z,102053.19
2022-07-29T01:09:34.992Z,102041.63
2022-07-29T01:15:56.859Z,102043.03
2022-07-29T01:22:15.934Z,102054.06
2022-07-29T01:28:42.534Z,102050.31
2022-07-29T01:34:52.624Z,102045.84
2022-07-29T01:41:03.536Z,102046.47
2022-07-29T01:47:16.264Z,102042.41
2022-07-29T01:53:29.097Z,102045.56
2022-07-29T01:59:43.082Z,102052.97
2022-07-29T02:05:50.587Z,102037.66
2022-07-29T02:11:56.794Z,102032.75
2022-07-29T02:18:04.254Z,102032.16
2022-07-29T02:24:12.615Z,102030.34
2022-07-29T02:30:16.646Z,102026.31
2022-07-29T02:36:23.445Z,102032.34
2022-07-29T02:42:30.747Z,102035.41
2022-07-29T02:48:39.606Z,102038.53
2022-07-29T02:54:47.106Z,102032.91
2022-07-29T03:00:53.871Z,102033.22
2022-07-29T03:07:01.839Z,102043.56
2022-07-29T03:13:07.468Z,102030.25
2022-07-29T03:19:13.074Z,102028.81
2022-07-29T03:25:18.110Z,102022.59
2022-07-29T03:31:21.814Z,102023.09
2022-07-29T03:37:26.875Z,102030.91
2022-07-29T03:43:33.135Z,102025.16
2022-07-29T03:49:39.812Z,102021.22
2022-07-29T03:55:47.827Z,102021.31
2022-07-29T04:01:52.354Z,102025.38
2022-07-29T04:07:55.683Z,102015.91
2022-07-29T04:14:00.600Z,102015.78
2022-07-29T04:20:04.504Z,102015.09
2022-07-29T04:26:10.657Z,102009.09
2022-07-29T04:32:15.840Z,102017.25
2022-07-29T04:38:19.434Z,102012.72
2022-07-29T04:44:28.452Z,102014.63
2022-07-29T04:50:34.068Z,102015.94
2022-07-29T04:56:37.628Z,102007.84
2022-07-29T05:02:41.471Z,102010.88
2022-07-29T05:08:46.548Z,102011.22
2022-07-29T05:14:50.079Z,102023.34
2022-07-29T05:20:53.899Z,102012.75
2022-07-29T05:26:58.863Z,102021.66
2022-07-29T05:33:02.383Z,102020.75
2022-07-29T05:39:05.910Z,102018.78
2022-07-29T05:45:11.921Z,102025.97
2022-07-29T05:51:15.494Z,102035.63
2022-07-29T05:57:19.733Z,102036.75
2022-07-29T06:03:24.677Z,102039.34
2022-07-29T06:09:29.319Z,102048.19
2022-07-29T06:15:33.018Z,102037.59
2022-07-29T06:21:38.700Z,102038.66
2022-07-29T06:27:45.762Z,102033.84
2022-07-29T06:33:49.366Z,102039.44
2022-07-29T06:40:14.338Z,102028.94
2022-07-29T06:46:18.900Z,102025.84
2022-07-29T06:52:22.561Z,102027.81
2022-07-29T06:58:28.172Z,102029.06
2022-07-29T07:04:31.762Z,102031.28
2022-07-29T07:10:35.934Z,102026.56
2022-07-29T07:16:40.933Z,102020.31
2022-07-29T07:22:44.678Z,102017.25
2022-07-29T07:28:48.217Z,102018.69
2022-07-29T07:34:53.177Z,102013.28
2022-07-29T07:40:56.804Z,102015.38
2022-07-29T07:47:08.458Z,102007.44
2022-07-29T07:53:14.106Z,102011.28
2022-07-29T07:59:17.829Z,102008.31
2022-07-29T08:05:23.790Z,102006.97
2022-07-29T08:11:28.925Z,102005.06
2022-07-29T08:17:37.723Z,101992.69
2022-07-29T08:23:50.582Z,101999.00
2022-07-29T08:29:59.598Z,101999.78
2022-07-29T08:36:03.370Z,101998.56
2022-07-29T08:42:08.031Z,102000.00
2022-07-29T08:48:13.979Z,101994.34
2022-07-29T08:54:20.441Z,102002.19
2022-07-29T09:00:25.650Z,101992.75
2022-07-29T09:06:35.001Z,101991.56
2022-07-29T09:12:39.013Z,101992.31
2022-07-29T09:18:44.076Z,101991.19
2022-07-29T09:24:49.611Z,101991.84
2022-07-29T09:30:54.980Z,101984.41
2022-07-29T09:36:58.913Z,101992.41
2022-07-29T09:43:12.458Z,101993.94
2022-07-29T09:49:18.887Z,101985.38
2022-07-29T09:55:22.550Z,101974.09
2022-07-29T10:01:31.469Z,101968.44
2022-07-29T10:07:53.487Z,101960.38
2022-07-29T10:13:57.662Z,101965.31
2022-07-29T10:20:02.848Z,101964.19
2022-07-29T10:26:06.972Z,101975.63
2022-07-29T10:32:32.874Z,101965.41
2022-07-29T10:38:53.428Z,101959.88
2022-07-29T10:44:59.160Z,101965.06
2022-07-29T10:51:05.516Z,101956.75
2022-07-29T10:57:20.751Z,101964.19
2022-07-29T11:03:49.468Z,101952.50
2022-07-29T11:10:26.977Z,101951.94
2022-07-29T11:17:06.926Z,101949.94
2022-07-29T11:23:26.275Z,101950.69
2022-07-29T11:29:30.626Z,101949.34
2022-07-29T11:35:38.355Z,101947.25
2022-07-29T11:41:44.659Z,101945.09
2022-07-29T11:47:53.702Z,101942.22
2022-07-29T11:54:04.255Z,101940.06
2022-07-29T12:00:12.690Z,101933.31
2022-07-29T12:06:21.032Z,101942.50
2022-07-29T12:12:26.206Z,101934.22
2022-07-29T12:18:29.747Z,101932.09
2022-07-29T12:24:45.460Z,101930.94
2022-07-29T12:30:52.959Z,101924.56
2022-07-29T12:36:56.793Z,101917.50
2022-07-29T12:43:11.458Z,101919.53
2022-07-29T12:49:24.872Z,101917.03
2022-07-29T12:55:42.060Z,101921.75
2022-07-29T13:01:48.131Z,101915.06
2022-07-29T13:07:55.562Z,101915.94
2022-07-29T13:14:06.816Z,101915.06
2022-07-29T13:20:15.189Z,101914.56
2022-07-29T13:26:20.768Z,101913.44
2022-07-29T13:32:28.516Z,101910.53
2022-07-29T13:38:32.548Z,101914.44
2022-07-29T13:44:37.631Z,101902.66
2022-07-29T13:50:41.141Z,101897.66
2022-07-29T13:56:44.717Z,101906.84
2022-07-29T14:02:51.381Z,101892.41
2022-07-29T14:08:54.958Z,101887.47
2022-07-29T14:14:58.542Z,101894.47
2022-07-29T14:21:03.757Z,101886.16
2022-07-29T14:27:07.678Z,101882.75
2022-07-29T14:33:11.185Z,101876.69
2022-07-29T14:39:16.754Z,101876.81
2022-07-29T14:45:20.287Z,101879.19
2022-07-29T14:51:23.851Z,101868.03
2022-07-29T14:57:37.274Z,101863.72
2022-07-29T15:03:40.871Z,101863.13
2022-07-29T15:09:49.535Z,101860.22
2022-07-29T15:15:59.930Z,101867.66
2022-07-29T15:22:05.880Z,101870.56
2022-07-29T15:28:09.877Z,101871.97
2022-07-29T15:34:14.834Z,101870.06
2022-07-29T15:40:18.472Z,101869.72
2022-07-29T15:46:40.070Z,101857.22
2022-07-29T15:52:45.194Z,101856.72
2022-07-29T15:58:48.821Z,101853.03
2022-07-29T16:04:52.601Z,101840.19
2022-07-29T16:10:57.720Z,101843.59
2022-07-29T16:17:03.838Z,101838.88
2022-07-29T16:23:09.494Z,101843.44
2022-07-29T16:29:15.074Z,101836.28
2022-07-29T16:35:19.323Z,101833.63
2022-07-29T16:41:22.935Z,101834.84
2022-07-29T16:47:27.934Z,101828.47
2022-07-29T16:53:31.455Z,101826.56
2022-07-29T16:59:35.274Z,101823.03
2022-07-29T17:05:50.775Z,101824.44
2022-07-29T17:11:57.656Z,101825.66
2022-07-29T17:18:03.172Z,101824.91
2022-07-29T17:24:17.774Z,101821.38
2022-07-29T17:30:21.346Z,101817.44
2022-07-29T17:36:24.885Z,101818.31
2022-07-29T17:42:29.801Z,101804.66
2022-07-29T17:48:33.342Z,101810.72
2022-07-29T17:54:36.921Z,101808.19
2022-07-29T18:00:42.214Z,101795.47
2022-07-29T18:06:45.859Z,101804.53
2022-07-29T18:12:49.471Z,101793.16
2022-07-29T18:18:54.776Z,101788.63
2022-07-29T18:24:58.389Z,101790.97
2022-07-29T18:31:02.492Z,101792.09
2022-07-29T18:37:07.831Z,101786.53
2022-07-29T18:43:12.319Z,101784.31
2022-07-29T18:49:16.348Z,101794.16
2022-07-29T18:55:21.891Z,101794.59
2022-07-29T19:01:25.628Z,101798.53
2022-07-29T19:07:36.151Z,101808.91
2022-07-29T19:13:41.471Z,101805.13
2022-07-29T19:19:45.125Z,101817.88
2022-07-29T19:25:53.511Z,101820.44
2022-07-29T19:32:00.355Z,101831.56
2022-07-29T19:38:07.350Z,101832.28
2022-07-29T19:44:11.457Z,101832.19
2022-07-29T19:50:17.294Z,101838.09
2022-07-29T19:56:21.208Z,101836.09
2022-07-29T20:02:24.570Z,101841.84
2022-07-29T20:08:29.554Z,101839.59
2022-07-29T20:14:33.140Z,101844.28
2022-07-29T20:20:38.173Z,101842.16
2022-07-29T20:26:43.996Z,101837.75
2022-07-29T20:32:50.948Z,101833.00
2022-07-29T20:39:00.641Z,101833.53
2022-07-29T20:45:09.165Z,101824.88
2022-07-29T20:51:17.041Z,101829.28
2022-07-29T20:57:38.479Z,101835.06
2022-07-29T21:03:45.192Z,101831.09
2022-07-29T21:09:48.749Z,101834.38
2022-07-29T21:15:56.845Z,101832.63
2022-07-29T21:22:02.017Z,101829.69
2022-07-29T21:28:23.214Z,101834.84
2022-07-29T21:34:28.111Z,101841.44
2022-07-29T21:40:33.135Z,101844.94
2022-07-29T21:46:36.824Z,101837.47
2022-07-29T21:52:40.445Z,101833.00
2022-07-29T21:58:45.402Z,101831.03
2022-07-29T22:04:49.031Z,101818.41
2022-07-29T22:10:52.644Z,101838.13
2022-07-29T22:16:58.001Z,101833.00
2022-07-29T22:23:02.015Z,101837.81
2022-07-29T22:29:05.609Z,101836.78
2022-07-29T22:35:10.964Z,101830.34
2022-07-29T22:41:15.585Z,101821.50
2022-07-29T22:47:19.290Z,101826.31
2022-07-29T22:53:44.198Z,101832.00
2022-07-29T22:59:47.785Z,101827.59
2022-07-29T23:05:52.446Z,101821.50
2022-07-29T23:11:57.400Z,101815.22
2022-07-29T23:18:00.988Z,101811.81
2022-07-29T23:24:04.681Z,101816.50
2022-07-29T23:30:11.020Z,101816.63
2022-07-29T23:36:14.541Z,101821.81
2022-07-29T23:42:18.081Z,101809.81
2022-07-29T23:48:23.024Z,101808.47
2022-07-29T23:54:26.591Z,101800.13
